Time;durP1;ratioP1;P1;durP2;ratioP2;P2;SDS_P1;SDS_P2;PMS_P1;PMS_P2;Temp;Humidity;BMP_temperature;BMP_pressure;BME280_temperature;BME280_humidity;BME280_pressure;Samples;Min_cycle;Max_cycle;Signal;HPM_P1;HPM_P2
2023/10/16 07:35:23;;;;;;;45.22;21.40;;;3.00;99.90;;;;;;4962015;27;86496;-75
2023/10/16 07:37:53;;;;;;;50.63;22.85;;;2.90;99.90;;;;;;4946050;28;86432;-74
2023/10/16 07:40:27;;;;;;;48.22;21.50;;;3.00;99.90;;;;;;4937919;28;86257;-70
2023/10/16 07:42:53;;;;;;;45.25;21.88;;;3.10;99.90;;;;;;4937329;28;87537;-73
2023/10/16 07:45:19;;;;;;;44.42;20.50;;;3.20;99.90;;;;;;4934537;28;86695;-70
2023/10/16 07:47:48;;;;;;;44.15;20.20;;;3.30;99.90;;;;;;4937411;28;86629;-72
2023/10/16 07:50:15;;;;;;;47.05;21.60;;;3.50;99.90;;;;;;4967646;28;87091;-74
2023/10/16 07:52:42;;;;;;;40.13;18.08;;;3.60;99.90;;;;;;4934677;28;90562;-72
2023/10/16 07:55:18;;;;;;;51.13;19.85;;;3.80;99.90;;;;;;4935377;28;87122;-72
2023/10/16 07:57:47;;;;;;;36.47;16.63;;;3.90;99.90;;;;;;4937861;28;86658;-76
2023/10/16 08:00:14;;;;;;;39.63;17.90;;;4.10;99.90;;;;;;4938254;28;87436;-77
2023/10/16 08:02:47;;;;;;;36.15;16.67;;;4.30;99.90;;;;;;4936860;28;87586;-74
2023/10/16 08:05:16;;;;;;;37.00;14.75;;;4.50;99.90;;;;;;4937195;28;86571;-74
2023/10/16 08:07:47;;;;;;;31.50;15.05;;;4.60;99.90;;;;;;4937541;28;86853;-75
2023/10/16 08:13:11;;;;;;;32.80;15.25;;;4.90;99.90;;;;;;4940277;28;86943;-75
2023/10/16 08:15:48;;;;;;;32.85;14.63;;;5.00;99.90;;;;;;4937477;28;87475;-75
2023/10/16 08:18:18;;;;;;;35.75;14.88;;;5.10;99.90;;;;;;4938242;28;87184;-75
2023/10/16 08:21:00;;;;;;;31.70;14.80;;;5.20;99.90;;;;;;4936260;28;86637;-77
2023/10/16 08:23:34;;;;;;;35.78;15.35;;;5.30;99.90;;;;;;4935028;28;89842;-73
2023/10/16 08:26:19;;;;;;;31.05;14.52;;;5.40;99.90;;;;;;4935722;28;89960;-74
2023/10/16 08:28:45;;;;;;;32.60;14.57;;;5.50;99.90;;;;;;4936518;28;87007;-76
2023/10/16 08:31:24;;;;;;;26.30;13.32;;;5.70;99.90;;;;;;4935974;28;86614;-76
2023/10/16 08:33:57;;;;;;;27.63;14.65;;;5.80;99.90;;;;;;4937301;28;87862;-76
2023/10/16 08:36:23;;;;;;;27.42;14.05;;;5.90;99.90;;;;;;4969807;28;90690;-74
2023/10/16 08:38:53;;;;;;;25.65;13.85;;;6.00;99.90;;;;;;4939297;28;86554;-76
2023/10/16 08:41:32;;;;;;;26.38;13.88;;;6.20;99.90;;;;;;4937865;28;86601;-73
2023/10/16 08:44:05;;;;;;;27.45;13.07;;;6.30;99.90;;;;;;4937909;28;86899;-75
2023/10/16 08:46:31;;;;;;;27.40;13.00;;;6.50;99.90;;;;;;4923979;28;90051;-73
2023/10/16 08:49:13;;;;;;;26.17;13.48;;;6.60;99.90;;;;;;4926825;28;87275;-74
2023/10/16 08:51:40;;;;;;;25.67;13.38;;;6.70;99.90;;;;;;4931948;28;86643;-75
2023/10/16 08:54:35;;;;;;;23.88;12.43;;;6.90;99.90;;;;;;4929417;28;90227;-75
2023/10/16 08:56:53;;;;;;;25.63;14.40;;;7.00;99.90;;;;;;4943820;28;90605;-74
2023/10/16 08:59:29;;;;;;;23.83;12.18;;;7.20;99.90;;;;;;4984924;22;88362;-77
2023/10/16 09:01:57;;;;;;;24.27;13.48;;;7.30;99.90;;;;;;4939582;28;86759;-78
2023/10/16 09:07:47;;;;;;;24.55;12.55;;;7.60;99.90;;;;;;4921587;28;86704;-77
2023/10/16 09:10:10;;;;;;;24.50;11.50;;;7.80;99.90;;;;;;4946150;28;85986;-77
2023/10/16 09:12:54;;;;;;;26.55;12.02;;;8.00;99.90;;;;;;4939009;28;87044;-77
2023/10/16 09:15:24;;;;;;;;;;;8.10;99.90;;;;;;4939407;28;90556;-78
2023/10/16 09:18:13;;;;;;;24.90;10.85;;;8.30;99.90;;;;;;4938977;28;89229;-77
2023/10/16 09:20:42;;;;;;;25.33;10.50;;;8.50;99.90;;;;;;4921999;28;87170;-76
2023/10/16 09:23:22;;;;;;;20.70;10.00;;;8.70;99.90;;;;;;4940024;28;87602;-77
2023/10/16 09:25:48;;;;;;;23.52;9.88;;;9.00;99.90;;;;;;4934379;28;86659;-77
2023/10/16 09:28:19;;;;;;;25.10;10.10;;;9.20;99.90;;;;;;4932200;28;89570;-78
2023/10/16 09:30:49;;;;;;;20.40;9.52;;;9.40;99.90;;;;;;4944872;28;87089;-76
2023/10/16 09:33:20;;;;;;;17.42;9.57;;;9.50;99.90;;;;;;4948850;28;87259;-76
2023/10/16 09:35:50;;;;;;;17.80;9.43;;;9.80;99.90;;;;;;4965767;28;91233;-76
2023/10/16 09:38:32;;;;;;;;;;;;;;;;;;;;;
2023/10/16 09:43:56;;;;;;;21.25;8.93;;;10.40;99.90;;;;;;4950752;28;86553;-77
2023/10/16 09:46:48;;;;;;;;;;;10.60;99.90;;;;;;4946866;28;89365;-77
2023/10/16 09:49:21;;;;;;;17.45;8.48;;;10.80;99.90;;;;;;4948704;28;90004;-77
2023/10/16 09:51:57;;;;;;;19.40;9.45;;;11.00;99.90;;;;;;4935262;28;86331;-77
2023/10/16 09:54:27;;;;;;;19.00;8.63;;;11.10;99.90;;;;;;4936576;28;86296;-77
2023/10/16 09:56:59;;;;;;;17.45;8.00;;;11.30;99.90;;;;;;4943028;28;94954;-77
2023/10/16 09:59:32;;;;;;;19.05;9.10;;;11.40;99.90;;;;;;4959644;28;90892;-77
2023/10/16 10:02:05;;;;;;;13.90;7.97;;;11.60;99.90;;;;;;4947083;28;86097;-77
2023/10/16 10:04:38;;;;;;;13.35;7.90;;;11.70;99.90;;;;;;4947063;28;85954;-77
2023/10/16 10:07:20;;;;;;;14.02;9.00;;;12.00;99.90;;;;;;4946209;28;89831;-77
2023/10/16 10:09:57;;;;;;;16.70;9.35;;;12.20;99.90;;;;;;4965637;28;88918;-77
2023/10/16 10:13:15;;;;;;;17.63;8.80;;;12.30;99.90;;;;;;4948340;28;86346;-77
2023/10/16 10:15:52;;;;;;;27.73;15.93;;;12.50;99.90;;;;;;4919272;28;87395;-77
2023/10/16 10:18:32;;;;;;;31.55;19.25;;;12.80;99.90;;;;;;4946730;28;90029;-77
2023/10/16 10:20:59;;;;;;;20.92;11.80;;;13.00;99.90;;;;;;4943914;28;94785;-76
2023/10/16 10:23:32;;;;;;;18.85;11.05;;;13.20;99.90;;;;;;4961748;28;88274;-77
2023/10/16 10:26:03;;;;;;;21.25;10.80;;;13.40;99.90;;;;;;4945995;28;87910;-76
2023/10/16 10:28:32;;;;;;;22.05;11.55;;;13.60;99.90;;;;;;4944468;28;90437;-77
2023/10/16 10:31:04;;;;;;;24.55;13.13;;;13.80;99.90;;;;;;4949047;28;87394;-77
2023/10/16 10:33:55;;;;;;;21.27;10.55;;;14.00;99.90;;;;;;4948698;28;86193;-77
2023/10/16 10:36:39;;;;;;;16.95;9.50;;;14.20;99.90;;;;;;4947316;28;87062;-77
2023/10/16 10:39:21;;;;;;;14.80;8.38;;;14.40;99.90;;;;;;4908725;28;95527;-77
2023/10/16 10:41:51;;;;;;;17.63;5.70;;;14.60;99.90;;;;;;4954034;28;90234;-77
2023/10/16 10:44:21;;;;;;;7.72;2.80;;;14.70;99.90;;;;;;4964073;28;86148;-77
2023/10/16 10:47:02;;;;;;;6.82;2.40;;;14.80;99.90;;;;;;4946513;28;86123;-77
2023/10/16 10:49:35;;;;;;;7.13;2.88;;;15.00;99.40;;;;;;4934345;28;89098;-77
2023/10/16 10:52:09;;;;;;;9.05;3.00;;;15.10;99.90;;;;;;4975111;28;90032;-77
2023/10/16 10:54:35;;;;;;;8.07;1.92;;;15.30;99.90;;;;;;4946020;28;87696;-77
2023/10/16 10:57:11;;;;;;;10.57;2.63;;;15.50;99.20;;;;;;4948664;28;85957;-77
2023/10/16 10:59:47;;;;;;;14.30;3.00;;;15.60;99.30;;;;;;4937199;28;91146;-77
2023/10/16 11:04:53;;;;;;;7.78;2.45;;;15.90;98.00;;;;;;4949056;28;87046;-77
2023/10/16 11:07:29;;;;;;;8.63;2.15;;;16.00;97.20;;;;;;4961893;28;86399;-77
2023/10/16 11:09:58;;;;;;;12.85;3.17;;;16.10;96.50;;;;;;4946323;28;91252;-77
2023/10/16 11:12:25;;;;;;;8.32;2.90;;;16.10;95.70;;;;;;4945822;28;89902;-76
2023/10/16 11:14:53;;;;;;;12.95;3.78;;;16.10;97.40;;;;;;4945789;28;88047;-77
2023/10/16 11:17:37;;;;;;;11.05;3.45;;;16.20;96.10;;;;;;4947085;28;86607;-77
2023/10/16 11:23:17;;;;;;;8.18;2.75;;;16.30;96.90;;;;;;4948229;28;87011;-78
2023/10/16 11:28:54;;;;;;;10.23;3.00;;;16.50;95.70;;;;;;4899284;28;87073;-77
2023/10/16 11:31:21;;;;;;;8.55;3.13;;;16.50;95.00;;;;;;4910251;28;90471;-76
2023/10/16 11:34:07;;;;;;;10.05;3.75;;;16.60;95.70;;;;;;4911631;28;90270;-76
2023/10/16 11:36:36;;;;;;;9.38;2.90;;;16.60;95.50;;;;;;4946537;28;85837;-76
2023/10/16 11:39:06;;;;;;;5.63;2.75;;;16.70;94.60;;;;;;4964942;28;86627;-76
2023/10/16 11:41:33;;;;;;;8.30;2.90;;;16.80;94.00;;;;;;4963668;28;90662;-76
2023/10/16 11:44:13;;;;;;;8.57;3.10;;;16.90;94.90;;;;;;4960733;28;89845;-76
2023/10/16 11:46:44;;;;;;;9.63;2.78;;;17.00;95.20;;;;;;4962599;28;86037;-76
2023/10/16 11:49:21;;;;;;;9.60;3.53;;;17.10;95.00;;;;;;4946366;28;86732;-77
2023/10/16 11:51:58;;;;;;;13.77;4.00;;;17.20;93.30;;;;;;4945149;28;91044;-76
2023/10/16 11:54:31;;;;;;;10.20;4.65;;;17.20;93.80;;;;;;4946594;28;90588;-78
2023/10/16 11:56:59;;;;;;;10.43;4.40;;;17.30;93.80;;;;;;4934680;28;90938;-77
2023/10/16 11:59:43;;;;;;;;;;;;;;;;;;;;;
2023/10/16 12:02:23;;;;;;;9.90;4.82;;;17.40;93.90;;;;;;4944004;28;115310;-77
2023/10/16 12:30:30;;;;;;;12.13;5.22;;;18.10;89.30;;;;;;4903875;28;87224;-77
2023/10/16 12:32:56;;;;;;;11.18;5.28;;;18.30;90.80;;;;;;4946393;28;86060;-77
2023/10/16 12:35:25;;;;;;;8.52;2.90;;;18.40;91.50;;;;;;4945642;28;90229;-77
2023/10/16 12:41:23;;;;;;;3.25;1.30;;;18.70;86.80;;;;;;4911152;28;86900;-77
2023/10/16 12:43:50;;;;;;;5.15;1.38;;;18.80;87.00;;;;;;4947053;28;87498;-77
2023/10/16 12:46:16;;;;;;;9.63;2.13;;;18.90;85.60;;;;;;4960167;28;90062;-77
2023/10/16 12:48:44;;;;;;;5.55;1.88;;;19.00;85.50;;;;;;4943678;28;89987;-77
2023/10/16 12:51:10;;;;;;;4.70;1.48;;;19.10;87.30;;;;;;4962144;28;87118;-77
2023/10/16 12:53:41;;;;;;;2.45;1.17;;;19.30;84.80;;;;;;4945221;28;86813;-77
2023/10/16 12:56:07;;;;;;;2.97;1.30;;;19.30;83.90;;;;;;4960736;28;91040;-77
2023/10/16 12:58:36;;;;;;;6.40;1.88;;;19.50;83.30;;;;;;4945095;28;90638;-77
2023/10/16 13:01:05;;;;;;;7.40;2.25;;;19.50;83.50;;;;;;4945080;28;86680;-76
2023/10/16 13:03:33;;;;;;;4.57;1.42;;;19.60;82.10;;;;;;4944947;28;87195;-77
2023/10/16 13:06:02;;;;;;;8.57;2.13;;;19.60;81.10;;;;;;4957869;28;88661;-77
2023/10/16 13:08:31;;;;;;;4.05;1.85;;;19.60;80.60;;;;;;4959811;28;88032;-78
2023/10/16 13:10:57;;;;;;;5.10;2.08;;;19.70;80.20;;;;;;4958135;28;86523;-77
2023/10/16 13:13:23;;;;;;;6.97;2.63;;;19.70;78.40;;;;;;4957495;28;86636;-77
2023/10/16 13:15:52;;;;;;;4.22;1.70;;;19.80;79.30;;;;;;4958045;28;91161;-77
2023/10/16 13:18:27;;;;;;;5.78;2.22;;;19.70;80.90;;;;;;4959071;28;90273;-77
2023/10/16 13:21:15;;;;;;;7.10;2.38;;;19.80;80.30;;;;;;4957860;28;90871;-77
2023/10/16 13:23:41;;;;;;;7.18;2.05;;;20.10;79.60;;;;;;4956913;28;86582;-77
2023/10/16 13:26:10;;;;;;;5.07;1.58;;;20.20;79.40;;;;;;4959293;28;90933;-77
2023/10/16 13:28:37;;;;;;;3.17;1.67;;;20.20;77.30;;;;;;4959438;28;86818;-78
2023/10/16 13:31:10;;;;;;;4.95;2.33;;;20.30;75.00;;;;;;4973911;28;86341;-78
2023/10/16 13:33:40;;;;;;;;;;;20.30;73.00;;;;;;4959024;28;86309;-77
2023/10/16 13:36:11;;;;;;;4.22;1.60;;;20.40;76.30;;;;;;4959464;28;91084;-77
2023/10/16 13:38:37;;;;;;;5.50;2.40;;;20.50;76.00;;;;;;4957531;28;88807;-77
2023/10/16 13:41:17;;;;;;;6.35;1.80;;;20.60;73.50;;;;;;4957562;28;86464;-77
2023/10/16 13:43:43;;;;;;;6.95;1.90;;;20.70;76.00;;;;;;4958189;28;86590;-77
2023/10/16 13:46:08;;;;;;;7.15;2.22;;;20.70;72.40;;;;;;4957666;28;89788;-78
2023/10/16 13:48:45;;;;;;;5.93;2.28;;;20.70;72.80;;;;;;4957922;28;89914;-77
2023/10/16 13:51:13;;;;;;;4.75;1.67;;;20.60;71.90;;;;;;4958787;28;86478;-78
2023/10/16 13:53:39;;;;;;;4.07;1.60;;;20.50;73.30;;;;;;4959441;28;86354;-78
2023/10/16 13:56:05;;;;;;;3.78;1.83;;;20.40;73.00;;;;;;4957184;28;91076;-78
2023/10/16 13:58:31;;;;;;;2.40;1.38;;;20.20;73.60;;;;;;4959601;28;86907;-78
2023/10/16 14:00:59;;;;;;;3.40;1.50;;;20.10;74.90;;;;;;4957162;28;86771;-77
2023/10/16 14:03:25;;;;;;;4.32;1.42;;;20.00;73.80;;;;;;4956670;28;86942;-76
2023/10/16 14:05:51;;;;;;;3.92;1.35;;;19.90;74.40;;;;;;4956159;28;95365;-77
2023/10/16 14:08:25;;;;;;;6.20;1.38;;;19.70;75.40;;;;;;4958715;28;87130;-77
2023/10/16 14:10:53;;;;;;;2.42;1.17;;;19.70;75.90;;;;;;4956759;28;86349;-77
2023/10/16 14:13:26;;;;;;;7.22;1.35;;;19.60;77.90;;;;;;4962641;28;86145;-77
2023/10/16 14:15:57;;;;;;;7.35;1.70;;;19.70;78.20;;;;;;4955339;28;90254;-77
2023/10/16 14:18:29;;;;;;;3.42;1.10;;;19.70;75.80;;;;;;4960499;28;87019;-77
2023/10/16 14:20:56;;;;;;;3.67;1.08;;;19.70;76.50;;;;;;4974530;28;91323;-77
2023/10/16 14:23:40;;;;;;;6.07;1.70;;;19.70;74.20;;;;;;4958354;28;87017;-77
2023/10/16 14:26:22;;;;;;;2.97;0.90;;;19.80;74.80;;;;;;4956999;28;90932;-77
2023/10/16 14:28:59;;;;;;;7.45;1.23;;;20.00;74.10;;;;;;4957076;28;90610;-77
2023/10/16 14:31:28;;;;;;;5.30;1.10;;;20.10;73.90;;;;;;4947782;28;87134;-77
2023/10/16 14:33:54;;;;;;;3.17;0.95;;;20.20;72.70;;;;;;4956352;28;86575;-77
2023/10/16 14:36:24;;;;;;;7.03;1.27;;;20.30;73.60;;;;;;4975679;28;90341;-77
2023/10/16 14:38:51;;;;;;;2.63;0.90;;;20.20;70.10;;;;;;4957872;28;94855;-77
2023/10/16 14:41:17;;;;;;;6.13;1.13;;;20.10;72.50;;;;;;4957790;28;87608;-77
2023/10/16 14:43:45;;;;;;;6.43;1.27;;;20.10;72.50;;;;;;4957806;28;86322;-77
2023/10/16 14:46:15;;;;;;;3.92;0.85;;;20.10;70.30;;;;;;4957702;28;91155;-78
2023/10/16 14:52:04;;;;;;;;;;;;;;;;;;;;;
2023/10/16 14:54:30;;;;;;;4.75;1.35;;;20.10;71.30;;;;;;4908382;28;113612;-77
2023/10/16 14:56:59;;;;;;;4.00;0.80;;;20.30;70.90;;;;;;4938671;28;89351;-78
2023/10/16 14:59:32;;;;;;;4.10;0.90;;;20.40;70.60;;;;;;4936823;28;89874;-77
2023/10/16 15:01:58;;;;;;;4.35;0.80;;;20.50;70.00;;;;;;4938507;28;86730;-77
2023/10/16 15:04:24;;;;;;;4.68;0.90;;;20.70;72.20;;;;;;4938678;28;86348;-78
2023/10/16 15:06:50;;;;;;;4.78;0.77;;;20.80;68.70;;;;;;4930604;28;91038;-77
2023/10/16 15:09:16;;;;;;;2.88;0.70;;;21.10;72.10;;;;;;4926704;28;89362;-78
2023/10/16 15:11:43;;;;;;;8.98;1.77;;;21.50;71.90;;;;;;4924312;28;86465;-77
2023/10/16 15:14:12;;;;;;;3.75;1.08;;;21.80;70.20;;;;;;4924450;28;86591;-78
2023/10/16 15:16:45;;;;;;;3.00;0.98;;;22.20;65.30;;;;;;4930855;28;91221;-78
2023/10/16 15:19:11;;;;;;;;;;;22.50;64.00;;;;;;4925539;28;89903;-77
2023/10/16 15:21:40;;;;;;;6.97;0.82;;;22.60;60.60;;;;;;4921210;28;86125;-78
2023/10/16 15:24:08;;;;;;;3.83;0.82;;;22.70;59.40;;;;;;4925951;28;86213;-78
2023/10/16 15:26:35;;;;;;;4.22;0.82;;;22.60;60.30;;;;;;4929138;28;91158;-78
2023/10/16 15:29:00;;;;;;;4.60;0.80;;;22.60;60.60;;;;;;4923607;28;90422;-77
2023/10/16 15:31:29;;;;;;;2.67;1.05;;;22.60;61.30;;;;;;4924249;28;87330;-77
2023/10/16 15:33:56;;;;;;;3.55;0.90;;;22.30;59.90;;;;;;4924787;28;87062;-77
2023/10/16 15:36:22;;;;;;;2.88;0.90;;;22.10;61.20;;;;;;4924955;28;90711;-77
2023/10/16 15:38:48;;;;;;;4.05;0.90;;;21.90;61.00;;;;;;4924443;28;90275;-77
2023/10/16 15:41:14;;;;;;;2.45;0.80;;;21.60;62.70;;;;;;4924569;28;86996;-77
2023/10/16 15:43:42;;;;;;;9.75;1.08;;;21.20;62.30;;;;;;4925329;28;87145;-77
2023/10/16 15:46:22;;;;;;;5.50;1.10;;;20.80;64.30;;;;;;4925466;28;90157;-78
2023/10/16 15:48:48;;;;;;;5.13;1.00;;;20.30;64.20;;;;;;4924286;28;90075;-76
2023/10/16 15:51:14;;;;;;;3.88;0.80;;;19.70;66.10;;;;;;4925497;28;86324;-77
2023/10/16 15:53:45;;;;;;;3.33;0.75;;;19.30;66.80;;;;;;4924373;28;86131;-77
2023/10/16 15:56:11;;;;;;;4.68;0.75;;;18.90;68.20;;;;;;4928075;28;87464;-77
2023/10/16 15:58:38;;;;;;;3.22;0.68;;;18.60;69.00;;;;;;4930029;28;86327;-77
2023/10/16 16:01:05;;;;;;;3.22;0.90;;;18.40;70.30;;;;;;4926835;28;86873;-77
2023/10/16 16:03:33;;;;;;;3.53;1.23;;;18.20;71.80;;;;;;4927564;28;86708;-77
2023/10/16 16:05:59;;;;;;;5.30;0.88;;;18.00;72.10;;;;;;4929672;28;90679;-77
2023/10/16 16:08:28;;;;;;;2.75;0.60;;;17.80;71.90;;;;;;4935446;28;86685;-77
2023/10/16 16:10:54;;;;;;;4.53;0.50;;;17.50;71.60;;;;;;4928564;28;86068;-77
2023/10/16 16:13:20;;;;;;;2.85;0.80;;;17.30;74.50;;;;;;4928331;28;86638;-77
2023/10/16 16:15:47;;;;;;;2.40;0.50;;;17.20;76.00;;;;;;4928224;28;89424;-76
2023/10/16 16:18:12;;;;;;;5.00;0.80;;;16.90;76.80;;;;;;4928170;28;88328;-77
2023/10/16 16:20:39;;;;;;;3.13;0.70;;;16.70;78.00;;;;;;4944429;28;87431;-76
2023/10/16 16:23:05;;;;;;;4.93;0.70;;;16.40;77.90;;;;;;4928688;28;86389;-77
2023/10/16 16:25:34;;;;;;;1.67;0.60;;;16.10;79.80;;;;;;4928328;28;89841;-77
2023/10/16 16:28:00;;;;;;;3.22;0.77;;;15.80;81.60;;;;;;4928632;28;90035;-77
2023/10/16 16:30:27;;;;;;;2.95;0.47;;;15.60;82.40;;;;;;4932058;28;86327;-77
2023/10/16 16:32:53;;;;;;;2.80;0.63;;;15.40;84.20;;;;;;4929741;28;86601;-77
2023/10/16 16:35:19;;;;;;;3.65;0.60;;;15.20;84.40;;;;;;4929359;28;90809;-77
2023/10/16 16:37:49;;;;;;;2.65;0.50;;;14.90;86.40;;;;;;4928885;28;90460;-77
2023/10/16 16:40:21;;;;;;;3.92;0.60;;;14.70;87.00;;;;;;4930768;28;86405;-77
2023/10/16 16:42:48;;;;;;;2.07;0.60;;;14.50;89.40;;;;;;4932438;28;85924;-77
2023/10/16 16:45:15;;;;;;;4.28;0.70;;;14.20;90.40;;;;;;4934295;28;89948;-76
2023/10/16 16:47:45;;;;;;;2.63;0.60;;;14.00;91.50;;;;;;4933276;28;90331;-77
2023/10/16 16:50:13;;;;;;;3.00;0.70;;;13.70;92.00;;;;;;4935459;28;86005;-77
2023/10/16 16:52:44;;;;;;;2.70;0.77;;;13.50;92.20;;;;;;4936603;28;86260;-77
2023/10/16 16:55:15;;;;;;;3.03;0.55;;;13.40;93.10;;;;;;4940146;28;92443;-77
2023/10/16 16:57:41;;;;;;;1.92;0.50;;;13.10;93.90;;;;;;4938141;28;89336;-77
2023/10/16 17:00:10;;;;;;;5.00;0.60;;;13.00;94.40;;;;;;4936843;28;87047;-76
2023/10/16 17:02:40;;;;;;;8.70;1.25;;;12.80;95.50;;;;;;4931874;28;86333;-77
2023/10/16 17:05:10;;;;;;;3.22;0.63;;;12.70;95.90;;;;;;4927705;28;87120;-77
2023/10/16 17:07:37;;;;;;;3.78;0.73;;;12.60;96.50;;;;;;4924984;28;88973;-77
2023/10/16 17:10:05;;;;;;;4.65;1.05;;;12.50;96.80;;;;;;4928731;28;86633;-76
2023/10/16 17:12:32;;;;;;;1.73;0.75;;;12.40;97.60;;;;;;4928519;28;86334;-76
2023/10/16 17:15:01;;;;;;;3.17;0.80;;;12.30;98.00;;;;;;4928824;28;87519;-76
2023/10/16 17:17:27;;;;;;;3.30;0.95;;;12.20;98.40;;;;;;4927478;28;89714;-76
2023/10/16 17:19:53;;;;;;;3.92;1.25;;;12.10;98.50;;;;;;4929725;28;86951;-76
2023/10/16 17:22:18;;;;;;;5.03;1.50;;;12.00;98.70;;;;;;4928353;28;86188;-76
2023/10/16 17:24:44;;;;;;;4.70;1.42;;;11.90;99.20;;;;;;4933297;28;90825;-76
2023/10/16 17:27:10;;;;;;;5.40;2.47;;;11.80;99.30;;;;;;4928982;28;90150;-76
2023/10/16 17:29:36;;;;;;;7.35;3.17;;;11.70;99.70;;;;;;4926420;28;86474;-76
2023/10/16 17:32:02;;;;;;;8.70;2.08;;;11.60;99.90;;;;;;4925178;28;87078;-76
2023/10/16 17:34:27;;;;;;;5.28;1.75;;;11.50;99.90;;;;;;4924463;28;87438;-76
2023/10/16 17:36:53;;;;;;;5.63;2.28;;;11.40;99.90;;;;;;4923403;28;87125;-76
2023/10/16 17:39:21;;;;;;;8.63;2.10;;;11.30;99.90;;;;;;4924779;28;86584;-76
2023/10/16 17:41:48;;;;;;;9.60;2.20;;;11.20;99.90;;;;;;4924773;28;86620;-77
2023/10/16 17:44:14;;;;;;;8.88;2.33;;;11.20;99.90;;;;;;4919865;28;91412;-76
2023/10/16 17:46:40;;;;;;;6.05;1.75;;;11.10;99.90;;;;;;4914493;28;87339;-76
2023/10/16 17:49:07;;;;;;;6.28;1.90;;;11.00;99.90;;;;;;4924290;28;86320;-76
2023/10/16 17:51:35;;;;;;;7.93;2.10;;;11.00;99.90;;;;;;4924220;28;86581;-76
2023/10/16 17:54:04;;;;;;;8.57;2.22;;;11.00;99.90;;;;;;4925847;28;87494;-76
2023/10/16 17:56:29;;;;;;;8.40;2.08;;;10.90;99.90;;;;;;4923060;28;89862;-76
2023/10/16 17:58:57;;;;;;;5.68;2.47;;;10.80;99.90;;;;;;4921972;28;86308;-76
2023/10/16 18:01:23;;;;;;;4.95;2.28;;;10.80;99.90;;;;;;4920584;28;86519;-76
2023/10/16 18:03:49;;;;;;;4.40;2.42;;;10.70;99.90;;;;;;4901015;28;90444;-75
2023/10/16 18:06:15;;;;;;;8.73;2.95;;;10.70;99.90;;;;;;4923924;28;89880;-75
2023/10/16 18:08:46;;;;;;;5.82;2.95;;;10.60;99.90;;;;;;4924717;28;86238;-75
2023/10/16 18:11:16;;;;;;;8.15;3.17;;;10.60;99.90;;;;;;4924316;28;86641;-76
2023/10/16 18:13:43;;;;;;;6.00;2.60;;;10.50;99.90;;;;;;4916117;28;87946;-75
2023/10/16 18:16:09;;;;;;;8.90;3.55;;;10.50;99.90;;;;;;4924758;28;87652;-75
2023/10/16 18:18:35;;;;;;;6.60;2.83;;;10.40;99.90;;;;;;4922796;28;86310;-75
2023/10/16 18:21:02;;;;;;;7.25;3.30;;;10.30;99.90;;;;;;4924803;28;86976;-76
2023/10/16 18:23:29;;;;;;;10.00;3.97;;;10.30;99.90;;;;;;4921906;28;90607;-75
2023/10/16 18:25:55;;;;;;;5.30;2.92;;;10.20;99.90;;;;;;4922041;28;90840;-75
2023/10/16 18:28:21;;;;;;;8.07;3.17;;;10.20;99.90;;;;;;4923335;28;86714;-75
2023/10/16 18:30:48;;;;;;;10.35;4.03;;;10.10;99.90;;;;;;4924643;28;86419;-75
2023/10/16 18:33:14;;;;;;;11.38;3.78;;;10.10;99.90;;;;;;4923691;28;91160;-75
2023/10/16 18:35:41;;;;;;;11.90;4.05;;;10.10;99.90;;;;;;4921919;28;89961;-75
2023/10/16 18:38:10;;;;;;;8.77;4.03;;;10.00;99.90;;;;;;4921332;28;86421;-75
2023/10/16 18:40:40;;;;;;;14.18;4.97;;;9.90;99.90;;;;;;4926364;28;86257;-75
2023/10/16 18:43:11;;;;;;;12.48;5.05;;;9.90;99.90;;;;;;4931756;28;86731;-75
2023/10/16 18:45:39;;;;;;;11.05;4.78;;;9.80;99.90;;;;;;4932179;28;86578;-75
2023/10/16 18:48:05;;;;;;;11.40;4.40;;;9.80;99.90;;;;;;4933426;28;86463;-75
2023/10/16 18:50:32;;;;;;;15.50;4.97;;;9.70;99.90;;;;;;4931371;28;86577;-75
2023/10/16 18:53:01;;;;;;;13.85;5.03;;;9.70;99.90;;;;;;4931011;28;88496;-76
2023/10/16 18:55:28;;;;;;;14.32;5.88;;;9.70;99.90;;;;;;4929612;28;90323;-75
2023/10/16 18:57:57;;;;;;;16.77;5.38;;;9.60;99.90;;;;;;4930746;28;85971;-75
2023/10/16 19:00:24;;;;;;;7.95;4.38;;;9.60;99.90;;;;;;4930492;28;86359;-75
2023/10/16 19:02:56;;;;;;;10.95;4.88;;;9.60;99.90;;;;;;4930628;28;95394;-75
2023/10/16 19:05:24;;;;;;;11.20;4.78;;;9.60;99.90;;;;;;4929336;28;90183;-75
2023/10/16 19:07:53;;;;;;;13.48;5.05;;;9.60;99.90;;;;;;4929335;28;86247;-76
2023/10/16 19:10:23;;;;;;;10.48;5.68;;;9.50;99.90;;;;;;4916476;28;86287;-75
2023/10/16 19:12:50;;;;;;;11.30;4.93;;;9.50;99.90;;;;;;4911041;28;88392;-76
2023/10/16 19:15:16;;;;;;;8.55;4.93;;;9.50;99.90;;;;;;4912744;28;86395;-75
2023/10/16 19:17:45;;;;;;;13.98;5.00;;;9.40;99.90;;;;;;4912576;28;86519;-75
2023/10/16 19:20:11;;;;;;;9.43;4.75;;;9.40;99.90;;;;;;4912772;28;86702;-75
2023/10/16 19:22:43;;;;;;;12.65;5.55;;;9.40;99.90;;;;;;4909595;28;90722;-75
2023/10/16 19:25:10;;;;;;;12.73;5.68;;;9.40;99.90;;;;;;4901026;28;89134;-75
2023/10/16 19:27:40;;;;;;;8.40;4.72;;;9.40;99.90;;;;;;4904536;28;86434;-75
2023/10/16 19:30:10;;;;;;;15.15;6.03;;;9.30;99.90;;;;;;4905230;28;86491;-75
2023/10/16 19:32:44;;;;;;;10.07;5.40;;;9.30;99.90;;;;;;4899002;28;91052;-75
2023/10/16 19:35:11;;;;;;;16.75;6.03;;;9.20;99.90;;;;;;4904634;28;87172;-75
2023/10/16 19:37:37;;;;;;;14.27;6.18;;;9.20;99.90;;;;;;4905345;28;86452;-75
2023/10/16 19:40:11;;;;;;;11.43;5.55;;;9.20;99.90;;;;;;4903511;28;86898;-75
2023/10/16 19:42:47;;;;;;;13.07;5.25;;;9.10;99.90;;;;;;4904337;28;88267;-75
2023/10/16 19:45:14;;;;;;;13.73;6.40;;;9.10;99.90;;;;;;4902040;28;90058;-75
2023/10/16 19:47:51;;;;;;;12.88;6.47;;;9.10;99.90;;;;;;4904567;28;85923;-75
2023/10/16 19:50:18;;;;;;;15.52;6.15;;;9.00;99.90;;;;;;4904326;28;86259;-75
2023/10/16 19:52:45;;;;;;;14.52;6.53;;;8.90;99.90;;;;;;4896252;28;89261;-75
2023/10/16 19:55:18;;;;;;;14.80;7.28;;;8.90;99.90;;;;;;4903327;28;86158;-75
2023/10/16 19:57:44;;;;;;;12.93;6.75;;;8.90;99.90;;;;;;4903970;28;86412;-75
2023/10/16 20:00:21;;;;;;;13.40;6.97;;;8.80;99.90;;;;;;4903083;28;86290;-75
2023/10/16 20:02:52;;;;;;;13.30;6.35;;;8.80;99.90;;;;;;4903830;28;86364;-75
2023/10/16 20:05:19;;;;;;;16.15;7.22;;;8.80;99.90;;;;;;4901451;28;90609;-75
2023/10/16 20:07:52;;;;;;;15.00;7.47;;;8.80;99.90;;;;;;4896055;28;87021;-75
2023/10/16 20:10:19;;;;;;;13.68;6.80;;;8.70;99.90;;;;;;4902695;28;86460;-75
2023/10/16 20:12:58;;;;;;;13.40;6.88;;;8.70;99.90;;;;;;4902870;28;87456;-75
2023/10/16 20:15:28;;;;;;;12.43;6.57;;;8.70;99.90;;;;;;4904364;28;86947;-75
2023/10/16 20:17:54;;;;;;;19.25;8.13;;;8.60;99.90;;;;;;4902700;28;86688;-74
2023/10/16 20:20:24;;;;;;;15.00;7.60;;;8.60;99.90;;;;;;4908032;28;86601;-75
2023/10/16 20:22:55;;;;;;;16.67;8.27;;;8.60;99.90;;;;;;4904577;28;86969;-75
2023/10/16 20:25:22;;;;;;;20.08;8.77;;;8.60;99.90;;;;;;4918219;28;90406;-75
2023/10/16 20:27:49;;;;;;;16.00;8.18;;;8.50;99.90;;;;;;4902515;28;87504;-75
2023/10/16 20:30:17;;;;;;;15.57;7.57;;;8.50;99.90;;;;;;4904996;28;86312;-75
2023/10/16 20:32:43;;;;;;;12.27;7.32;;;8.50;99.90;;;;;;4902406;28;87006;-75
2023/10/16 20:35:13;;;;;;;16.58;8.75;;;8.50;99.90;;;;;;4911890;28;86951;-76
2023/10/16 20:37:42;;;;;;;15.52;8.07;;;8.50;99.90;;;;;;4917040;28;86051;-76
2023/10/16 20:40:10;;;;;;;18.08;8.48;;;8.50;99.90;;;;;;4916150;28;86002;-75
2023/10/16 20:42:36;;;;;;;15.60;7.38;;;8.50;99.90;;;;;;4920295;28;87427;-75
2023/10/16 20:45:02;;;;;;;17.92;7.10;;;8.50;99.90;;;;;;4911921;28;90775;-75
2023/10/16 20:47:28;;;;;;;13.50;7.47;;;8.50;99.90;;;;;;4911463;28;86379;-76
2023/10/16 20:49:55;;;;;;;14.43;6.90;;;8.50;99.90;;;;;;4918593;28;86653;-75
2023/10/16 20:52:22;;;;;;;13.40;7.32;;;8.50;99.90;;;;;;4918902;28;91033;-75
2023/10/16 20:54:48;;;;;;;14.20;7.85;;;8.50;99.90;;;;;;4919441;28;86321;-75
2023/10/16 20:57:14;;;;;;;16.42;7.72;;;8.50;99.90;;;;;;4921580;28;86422;-75
2023/10/16 20:59:40;;;;;;;14.23;7.38;;;8.50;99.90;;;;;;4920685;28;86383;-75
2023/10/16 21:02:06;;;;;;;18.83;7.53;;;8.50;99.90;;;;;;4919224;28;91087;-75
2023/10/16 21:04:32;;;;;;;19.63;8.40;;;8.50;99.90;;;;;;4919897;28;87388;-75
2023/10/16 21:06:58;;;;;;;19.60;9.57;;;8.40;99.90;;;;;;4920965;28;86518;-75
2023/10/16 21:09:24;;;;;;;16.75;9.60;;;8.40;99.90;;;;;;4920456;28;86353;-75
2023/10/16 21:11:50;;;;;;;18.40;8.90;;;8.40;99.90;;;;;;4919775;28;87471;-75
2023/10/16 21:14:16;;;;;;;17.58;8.98;;;8.40;99.90;;;;;;4920496;28;87401;-75
2023/10/16 21:16:42;;;;;;;18.83;9.25;;;8.40;99.90;;;;;;4912238;28;86222;-75
2023/10/16 21:19:08;;;;;;;17.27;8.30;;;8.40;99.90;;;;;;4921056;28;86341;-75
2023/10/16 21:21:36;;;;;;;14.05;7.82;;;8.40;99.90;;;;;;4920304;28;86555;-75
2023/10/16 21:24:02;;;;;;;17.77;8.20;;;8.40;99.90;;;;;;4920723;28;86948;-75
2023/10/16 21:26:29;;;;;;;14.50;8.35;;;8.40;99.90;;;;;;4912332;28;87277;-75